createdAt,value
2022-08-02T00:00:50.502Z,23.60
2022-08-02T00:03:22.274Z,24.60
2022-08-02T00:05:53.750Z,24.50
2022-08-02T00:08:20.466Z,23.50
2022-08-02T00:10:46.923Z,24.50
2022-08-02T00:13:13.378Z,24.30
2022-08-02T00:15:39.821Z,24.60
2022-08-02T00:18:06.279Z,24.50
2022-08-02T00:20:32.723Z,24.30
2022-08-02T00:22:59.193Z,24.40
2022-08-02T00:25:25.651Z,24.50
2022-08-02T00:27:52.085Z,24.50
2022-08-02T00:30:18.526Z,24.90
2022-08-02T00:32:44.991Z,25.00
2022-08-02T00:35:11.442Z,24.80
2022-08-02T00:37:37.887Z,24.70
2022-08-02T00:40:04.354Z,23.60
2022-08-02T00:42:30.802Z,24.70
2022-08-02T00:44:57.282Z,24.90
2022-08-02T00:47:23.729Z,24.90
2022-08-02T00:49:50.183Z,24.80
2022-08-02T00:52:16.629Z,24.00
2022-08-02T00:54:43.057Z,24.60
2022-08-02T00:57:09.510Z,23.80
2022-08-02T00:59:35.953Z,24.70
2022-08-02T01:04:30.191Z,24.60
2022-08-02T01:06:58.107Z,24.60
2022-08-02T01:09:24.560Z,24.30
2022-08-02T01:11:51.016Z,24.30
2022-08-02T01:14:17.474Z,24.60
2022-08-02T01:16:43.971Z,23.70
2022-08-02T01:19:14.733Z,24.80
2022-08-02T01:21:42.658Z,24.60
2022-08-02T01:24:09.378Z,24.80
2022-08-02T01:26:35.938Z,24.50
2022-08-02T01:29:02.398Z,24.20
2022-08-02T01:31:28.841Z,24.10
2022-08-02T01:33:55.282Z,24.60
2022-08-02T01:36:21.765Z,24.70
2022-08-02T01:38:48.234Z,24.80
2022-08-02T01:41:14.676Z,24.80
2022-08-02T01:43:41.128Z,24.60
2022-08-02T01:46:07.589Z,24.90
2022-08-02T01:48:34.025Z,23.70
2022-08-02T01:51:00.477Z,25.00
2022-08-02T01:53:26.918Z,24.00
2022-08-02T01:55:57.857Z,23.80
2022-08-02T01:58:25.327Z,24.80
2022-08-02T02:00:51.904Z,24.60
2022-08-02T02:03:18.376Z,24.80
2022-08-02T02:05:44.810Z,25.10
2022-08-02T02:08:11.255Z,24.00
2022-08-02T02:10:37.696Z,24.80
2022-08-02T02:13:04.147Z,24.40
2022-08-02T02:15:30.584Z,23.60
2022-08-02T02:18:12.286Z,24.00
2022-08-02T02:20:40.082Z,23.90
2022-08-02T02:23:06.521Z,24.50
2022-08-02T02:25:35.792Z,24.60
2022-08-02T02:28:03.009Z,24.90
2022-08-02T02:30:29.485Z,23.80
2022-08-02T02:32:55.953Z,24.50
2022-08-02T02:37:49.382Z,23.80
2022-08-02T02:40:15.843Z,24.80
2022-08-02T02:42:42.297Z,23.60
2022-08-02T02:45:15.898Z,24.90
2022-08-02T02:47:42.344Z,23.90
2022-08-02T02:50:08.812Z,23.70
2022-08-02T02:52:35.264Z,23.60
2022-08-02T02:55:01.716Z,23.80
2022-08-02T02:57:28.165Z,24.70
2022-08-02T02:59:54.606Z,25.40
2022-08-02T03:02:21.057Z,23.90
2022-08-02T03:04:56.844Z,24.30
2022-08-02T03:07:24.456Z,24.80
2022-08-02T03:09:53.729Z,24.80
2022-08-02T03:12:21.126Z,24.70
2022-08-02T03:14:49.179Z,24.30
2022-08-02T03:19:43.031Z,24.70
2022-08-02T03:22:09.761Z,24.40
2022-08-02T03:24:36.416Z,24.10
2022-08-02T03:27:02.862Z,24.80
2022-08-02T03:29:32.712Z,24.30
2022-08-02T03:34:27.821Z,24.20
2022-08-02T03:36:54.261Z,24.50
2022-08-02T03:39:20.723Z,24.60
2022-08-02T03:41:47.171Z,24.50
2022-08-02T03:44:13.610Z,23.90
2022-08-02T03:46:40.100Z,24.90
2022-08-02T03:49:06.577Z,23.80
2022-08-02T03:51:33.041Z,24.80
2022-08-02T03:53:59.483Z,23.70
2022-08-02T03:56:25.924Z,23.70
2022-08-02T03:58:52.393Z,24.10
2022-08-02T04:01:18.912Z,24.40
2022-08-02T04:03:45.449Z,24.70
2022-08-02T04:06:11.902Z,23.80
2022-08-02T04:08:38.858Z,23.90
2022-08-02T04:11:05.542Z,25.00
2022-08-02T04:13:35.819Z,24.40
2022-08-02T04:16:02.542Z,25.10
2022-08-02T04:18:28.988Z,24.40
2022-08-02T04:20:55.428Z,25.00
2022-08-02T04:23:21.902Z,24.60
2022-08-02T04:25:48.340Z,24.50
2022-08-02T04:28:18.339Z,24.30
2022-08-02T04:30:45.051Z,24.20
2022-08-02T04:33:11.517Z,24.80
2022-08-02T04:35:37.958Z,24.40
2022-08-02T04:38:09.198Z,24.80
2022-08-02T04:40:36.829Z,23.90
2022-08-02T04:43:03.283Z,23.80
2022-08-02T04:45:29.722Z,23.40
2022-08-02T04:48:04.499Z,22.60
2022-08-02T04:50:31.671Z,22.80
2022-08-02T04:52:58.121Z,22.60
2022-08-02T04:55:24.574Z,22.80
2022-08-02T04:57:52.755Z,23.00
2022-08-02T05:00:19.776Z,22.80
2022-08-02T05:02:46.345Z,23.40
2022-08-02T05:05:12.828Z,23.40
2022-08-02T05:07:39.288Z,23.00
2022-08-02T05:10:05.748Z,22.50
2022-08-02T05:12:32.270Z,22.80
2022-08-02T05:14:58.719Z,22.80
2022-08-02T05:17:25.186Z,22.60
2022-08-02T05:19:51.622Z,22.70
2022-08-02T05:22:18.113Z,22.90
2022-08-02T05:24:44.565Z,22.40
2022-08-02T05:27:21.174Z,22.60
2022-08-02T05:29:53.072Z,22.50
2022-08-02T05:32:20.615Z,22.70
2022-08-02T05:34:50.175Z,22.60
2022-08-02T05:37:16.609Z,22.50
2022-08-02T05:39:55.810Z,22.60
2022-08-02T05:42:22.802Z,22.40
2022-08-02T05:44:49.264Z,22.30
2022-08-02T05:47:15.709Z,22.50
2022-08-02T05:49:42.166Z,22.60
2022-08-02T05:52:08.934Z,22.60
2022-08-02T05:54:36.921Z,22.70
2022-08-02T05:57:04.975Z,22.60
2022-08-02T05:59:31.433Z,22.40
2022-08-02T06:01:57.925Z,22.50
2022-08-02T06:06:51.414Z,22.50
2022-08-02T06:09:21.047Z,22.70
2022-08-02T06:12:01.857Z,22.60
2022-08-02T06:14:30.504Z,22.50
2022-08-02T06:19:24.228Z,22.70
2022-08-02T06:24:37.621Z,24.60
2022-08-02T06:27:04.065Z,22.40
2022-08-02T06:29:30.547Z,22.30
2022-08-02T06:31:56.997Z,22.70
2022-08-02T06:34:23.453Z,22.20
2022-08-02T06:39:16.919Z,22.70
2022-08-02T06:41:43.369Z,22.40
2022-08-02T06:47:11.822Z,22.50
2022-08-02T06:49:52.632Z,22.70
2022-08-02T06:52:24.315Z,22.90
2022-08-02T06:54:54.083Z,23.00
2022-08-02T06:57:20.531Z,22.90
2022-08-02T06:59:47.011Z,22.50
2022-08-02T07:02:13.621Z,23.00
2022-08-02T07:04:40.270Z,23.10
2022-08-02T07:07:06.713Z,22.60
2022-08-02T07:12:00.150Z,23.30
2022-08-02T07:14:26.615Z,23.10
2022-08-02T07:16:53.066Z,23.00
2022-08-02T07:21:59.556Z,23.20
2022-08-02T07:27:10.447Z,23.20
2022-08-02T07:29:44.876Z,23.30
2022-08-02T07:34:39.386Z,24.40
2022-08-02T07:39:35.193Z,22.90
2022-08-02T07:44:29.281Z,23.20
2022-08-02T07:46:56.206Z,24.20
2022-08-02T07:51:49.749Z,22.90
2022-08-02T07:54:16.948Z,24.00
2022-08-02T07:56:43.561Z,23.90
2022-08-02T08:04:04.018Z,24.00
2022-08-02T08:06:30.545Z,23.50
2022-08-02T08:08:56.990Z,24.20
2022-08-02T08:11:23.442Z,23.40
2022-08-02T08:13:49.886Z,22.90
2022-08-02T08:16:16.326Z,24.10
2022-08-02T08:18:42.798Z,23.30
2022-08-02T08:21:09.254Z,24.00
2022-08-02T08:23:35.702Z,24.30
2022-08-02T08:26:02.163Z,24.10
2022-08-02T08:28:28.618Z,23.60
2022-08-02T08:30:55.058Z,23.40
2022-08-02T08:33:21.555Z,24.40
2022-08-02T08:35:48.045Z,23.90
2022-08-02T08:38:14.481Z,23.10
2022-08-02T08:40:40.926Z,24.00
2022-08-02T08:43:07.364Z,24.20
2022-08-02T08:45:33.830Z,24.30
2022-08-02T08:48:00.275Z,23.10
2022-08-02T08:50:26.816Z,24.20
2022-08-02T08:52:53.299Z,24.80
2022-08-02T08:55:19.733Z,24.40
2022-08-02T08:57:46.195Z,24.70
2022-08-02T09:00:12.645Z,24.30
2022-08-02T09:02:39.106Z,24.10
2022-08-02T09:05:05.567Z,24.60
2022-08-02T09:07:32.004Z,23.90
2022-08-02T09:09:58.445Z,24.10
2022-08-02T09:12:24.901Z,24.30
2022-08-02T09:14:51.382Z,23.80
2022-08-02T09:17:17.865Z,24.60
2022-08-02T09:19:46.225Z,24.60
2022-08-02T09:22:13.256Z,24.80
2022-08-02T09:24:40.111Z,23.80
2022-08-02T09:29:34.564Z,24.10
2022-08-02T09:34:37.974Z,24.10
2022-08-02T09:37:04.413Z,24.00
2022-08-02T09:39:30.858Z,24.80
2022-08-02T09:41:59.083Z,23.90
2022-08-02T09:44:25.523Z,26.10
2022-08-02T09:46:51.981Z,24.70
2022-08-02T09:49:18.557Z,24.40
2022-08-02T09:51:45.089Z,23.50
2022-08-02T09:56:38.650Z,23.70
2022-08-02T09:59:05.333Z,24.40
2022-08-02T10:04:03.790Z,24.80
2022-08-02T10:06:31.065Z,24.70
2022-08-02T10:08:57.513Z,24.40
2022-08-02T10:13:50.941Z,25.00
2022-08-02T10:16:17.375Z,24.60
2022-08-02T10:18:43.835Z,25.00
2022-08-02T10:21:10.266Z,25.00
2022-08-02T10:26:03.737Z,24.90
2022-08-02T10:28:30.197Z,23.50
2022-08-02T10:30:56.654Z,23.80
2022-08-02T10:33:23.101Z,24.70
2022-08-02T10:35:50.555Z,24.80
2022-08-02T10:38:33.317Z,23.80
2022-08-02T10:40:59.776Z,24.60
2022-08-02T10:43:26.236Z,24.60
2022-08-02T10:45:52.720Z,24.70
2022-08-02T10:48:19.156Z,24.50
2022-08-02T10:50:45.608Z,24.70
2022-08-02T10:53:12.075Z,24.90
2022-08-02T10:55:38.514Z,24.70
2022-08-02T10:58:04.988Z,25.00
2022-08-02T11:05:25.402Z,24.70
2022-08-02T11:07:51.869Z,24.70
2022-08-02T11:10:18.329Z,24.50
2022-08-02T11:15:13.667Z,24.80
2022-08-02T11:17:41.140Z,25.10
2022-08-02T11:20:07.691Z,24.60
2022-08-02T11:22:34.142Z,24.50
2022-08-02T11:25:00.602Z,24.70
2022-08-02T11:27:27.045Z,24.70
2022-08-02T11:29:53.529Z,24.80
2022-08-02T11:32:19.989Z,24.70
2022-08-02T11:34:46.448Z,24.70
2022-08-02T11:37:12.914Z,24.80
2022-08-02T11:39:39.350Z,24.50
2022-08-02T11:42:05.785Z,24.80
2022-08-02T11:44:32.222Z,24.10
2022-08-02T11:49:25.836Z,24.70
2022-08-02T11:51:54.188Z,24.90
2022-08-02T11:54:20.887Z,24.70
2022-08-02T11:56:47.332Z,25.00
2022-08-02T11:59:14.641Z,24.80
2022-08-02T12:01:45.206Z,24.70
2022-08-02T12:06:39.485Z,24.60
2022-08-02T12:09:06.478Z,25.20
2022-08-02T12:11:44.577Z,24.80
2022-08-02T12:16:38.057Z,25.20
2022-08-02T12:19:04.486Z,24.80
2022-08-02T12:21:30.929Z,24.50
2022-08-02T12:24:01.035Z,24.70
2022-08-02T12:26:27.880Z,24.90
2022-08-02T12:28:54.326Z,24.80
2022-08-02T12:31:20.793Z,25.20
2022-08-02T12:33:47.240Z,24.50
2022-08-02T12:36:13.697Z,24.90
2022-08-02T12:38:40.284Z,25.10
2022-08-02T12:41:31.690Z,24.40
2022-08-02T12:43:53.172Z,25.00
2022-08-02T12:46:19.611Z,24.80
2022-08-02T12:49:08.344Z,25.00
2022-08-02T12:54:19.440Z,24.90
2022-08-02T12:56:49.433Z,24.80
2022-08-02T12:59:15.886Z,24.90
2022-08-02T13:01:42.360Z,23.80
2022-08-02T13:04:13.744Z,24.70
2022-08-02T13:06:43.966Z,24.80
2022-08-02T13:09:11.197Z,24.70
2022-08-02T13:11:37.657Z,24.20
2022-08-02T13:14:09.546Z,23.90
2022-08-02T13:16:36.005Z,24.10
2022-08-02T13:19:02.489Z,24.70
2022-08-02T13:21:41.395Z,25.00
2022-08-02T13:24:32.766Z,24.80
2022-08-02T13:27:05.102Z,24.50
2022-08-02T13:29:34.436Z,24.90
2022-08-02T13:32:00.874Z,25.20
2022-08-02T13:34:27.317Z,24.90
2022-08-02T13:36:53.773Z,24.70
2022-08-02T13:41:47.256Z,24.80
2022-08-02T13:44:13.700Z,24.90
2022-08-02T13:46:45.603Z,23.30
2022-08-02T13:49:17.829Z,24.40
2022-08-02T13:51:45.638Z,24.80
2022-08-02T13:54:12.087Z,25.00
2022-08-02T13:56:38.533Z,25.00
2022-08-02T13:59:53.926Z,24.80
2022-08-02T14:01:51.474Z,24.70
2022-08-02T14:04:17.950Z,24.70
2022-08-02T14:06:44.398Z,24.90
2022-08-02T14:09:13.480Z,24.80
2022-08-02T14:11:43.663Z,24.50
2022-08-02T14:14:16.686Z,24.80
2022-08-02T14:16:44.480Z,24.60
2022-08-02T14:19:15.491Z,24.50
2022-08-02T14:21:46.717Z,24.90
2022-08-02T14:26:41.156Z,24.80
2022-08-02T14:29:07.624Z,24.80
2022-08-02T14:31:34.070Z,24.70
2022-08-02T14:36:28.200Z,24.80
2022-08-02T14:38:54.789Z,24.80
2022-08-02T14:41:21.247Z,24.70
2022-08-02T14:43:47.686Z,24.70
2022-08-02T14:46:14.135Z,25.30
2022-08-02T14:48:40.588Z,24.60
2022-08-02T14:51:07.030Z,24.90
2022-08-02T14:53:37.936Z,24.90
2022-08-02T14:56:15.714Z,24.90
2022-08-02T15:01:09.195Z,24.80
2022-08-02T15:03:43.646Z,24.80
2022-08-02T15:06:10.310Z,25.00
2022-08-02T15:08:36.755Z,24.50
2022-08-02T15:11:03.194Z,24.70
2022-08-02T15:13:29.663Z,24.60
2022-08-02T15:15:56.516Z,24.20
2022-08-02T15:18:22.963Z,24.80
2022-08-02T15:20:57.694Z,24.70
2022-08-02T15:23:24.378Z,24.80
2022-08-02T15:26:01.218Z,23.70
2022-08-02T15:28:27.665Z,25.00
2022-08-02T15:30:54.101Z,25.70
2022-08-02T15:33:20.558Z,24.80
2022-08-02T15:38:13.992Z,24.60
2022-08-02T15:40:40.428Z,24.70
2022-08-02T15:43:06.871Z,24.50
2022-08-02T15:45:33.312Z,24.60
2022-08-02T15:47:59.756Z,24.90
2022-08-02T15:50:26.235Z,23.90
2022-08-02T15:52:52.692Z,25.10
2022-08-02T15:55:19.131Z,25.00
2022-08-02T16:00:18.133Z,24.50
2022-08-02T16:02:45.153Z,24.80
2022-08-02T16:05:13.796Z,24.80
2022-08-02T16:07:41.245Z,24.70
2022-08-02T16:10:07.790Z,24.80
2022-08-02T16:12:34.232Z,23.50
2022-08-02T16:15:00.670Z,24.20
2022-08-02T16:17:48.913Z,24.90
2022-08-02T16:20:13.664Z,24.70
2022-08-02T16:22:40.116Z,24.70
2022-08-02T16:25:06.573Z,24.70
2022-08-02T16:27:33.029Z,25.00
2022-08-02T16:30:19.472Z,24.70
2022-08-02T16:32:45.938Z,24.70
2022-08-02T16:35:12.395Z,24.80
2022-08-02T16:37:51.755Z,24.70
2022-08-02T16:40:18.685Z,25.10
2022-08-02T16:42:50.211Z,24.70
2022-08-02T16:45:20.171Z,24.80
2022-08-02T16:47:55.999Z,24.70
2022-08-02T16:50:27.303Z,24.90
2022-08-02T16:52:55.204Z,24.80
2022-08-02T16:55:21.923Z,24.90
2022-08-02T16:57:50.220Z,25.30
2022-08-02T17:00:16.830Z,24.70
2022-08-02T17:02:43.887Z,24.40
2022-08-02T17:05:14.176Z,24.90
2022-08-02T17:08:07.424Z,24.60
2022-08-02T17:16:07.605Z,24.80
2022-08-02T17:18:08.781Z,25.10
2022-08-02T17:20:35.458Z,24.70
2022-08-02T17:23:01.918Z,24.80
2022-08-02T17:25:28.362Z,24.70
2022-08-02T17:27:58.541Z,24.80
2022-08-02T17:30:26.292Z,24.50
2022-08-02T17:32:53.685Z,24.80
2022-08-02T17:35:20.134Z,24.60
2022-08-02T17:37:54.637Z,25.00
2022-08-02T17:40:26.193Z,24.90
2022-08-02T17:48:04.736Z,24.50
2022-08-02T17:50:32.027Z,24.40
2022-08-02T17:52:58.988Z,24.90
2022-08-02T17:55:25.685Z,24.80
2022-08-02T17:57:57.320Z,24.60
2022-08-02T18:00:25.351Z,24.70
2022-08-02T18:02:55.250Z,24.60
2022-08-02T18:05:22.239Z,24.60
2022-08-02T18:07:53.115Z,24.80
2022-08-02T18:10:23.279Z,24.70
2022-08-02T18:12:49.752Z,23.70
2022-08-02T18:15:16.206Z,24.70
2022-08-02T18:17:42.694Z,24.80
2022-08-02T18:20:11.143Z,24.80
2022-08-02T18:22:39.639Z,24.70
2022-08-02T18:25:09.203Z,24.70
2022-08-02T18:27:36.054Z,24.60
2022-08-02T18:30:05.369Z,23.80
2022-08-02T18:33:54.211Z,23.70
2022-08-02T18:35:18.261Z,23.40
2022-08-02T18:37:50.325Z,24.20
2022-08-02T18:40:23.560Z,24.30
2022-08-02T18:45:19.634Z,24.20
2022-08-02T18:47:50.854Z,23.10
2022-08-02T18:50:17.711Z,24.10
2022-08-02T18:52:44.265Z,23.80
2022-08-02T18:55:17.115Z,23.80
2022-08-02T18:58:16.738Z,24.70
2022-08-02T19:02:57.595Z,23.40
2022-08-02T19:05:24.033Z,24.60
2022-08-02T19:08:10.458Z,23.90
2022-08-02T19:13:04.450Z,24.90
2022-08-02T19:15:44.161Z,24.50
2022-08-02T19:18:14.313Z,24.70
2022-08-02T19:20:40.754Z,25.00
2022-08-02T19:23:14.556Z,24.90
2022-08-02T19:25:45.220Z,24.50
2022-08-02T19:28:16.950Z,24.70
2022-08-02T19:36:01.741Z,24.40
2022-08-02T19:40:57.070Z,25.00
2022-08-02T19:44:27.475Z,24.90
2022-08-02T19:46:15.851Z,25.40
2022-08-02T19:48:42.633Z,24.90
2022-08-02T19:51:11.751Z,24.90
2022-08-02T19:53:47.441Z,25.10
2022-08-02T19:56:21.101Z,24.80
2022-08-02T19:58:51.265Z,24.90
2022-08-02T20:01:21.956Z,25.10
2022-08-02T20:03:52.640Z,24.70
2022-08-02T20:06:19.557Z,24.50
2022-08-02T20:08:57.096Z,25.00
2022-08-02T20:11:25.541Z,24.70
2022-08-02T20:13:53.302Z,25.20
2022-08-02T20:16:27.702Z,24.80
2022-08-02T20:18:54.862Z,25.20
2022-08-02T20:21:36.288Z,25.00
2022-08-02T20:24:07.749Z,24.90
2022-08-02T20:26:35.189Z,24.80
2022-08-02T20:29:02.437Z,24.80
2022-08-02T20:31:29.819Z,25.10
2022-08-02T20:33:56.860Z,24.80
2022-08-02T20:36:23.454Z,25.10
2022-08-02T20:38:49.904Z,24.70
2022-08-02T20:41:21.469Z,24.80
2022-08-02T20:43:48.697Z,24.90
2022-08-02T20:46:15.277Z,25.30
2022-08-02T20:48:41.729Z,25.10
2022-08-02T20:51:11.998Z,25.10
2022-08-02T20:53:54.813Z,25.10
2022-08-02T20:56:21.778Z,24.90
2022-08-02T20:58:48.208Z,24.90
2022-08-02T21:01:18.996Z,24.90
2022-08-02T21:06:25.398Z,24.60
2022-08-02T21:08:54.680Z,24.70
2022-08-02T21:11:25.229Z,24.80
2022-08-02T21:16:35.466Z,24.70
2022-08-02T21:19:02.091Z,25.00
2022-08-02T21:21:28.550Z,25.10
2022-08-02T21:23:56.317Z,24.70
2022-08-02T21:26:27.926Z,24.50
2022-08-02T21:28:56.796Z,24.80
2022-08-02T21:31:23.327Z,25.40
2022-08-02T21:33:58.586Z,25.10
2022-08-02T21:39:12.100Z,24.60
2022-08-02T21:41:45.922Z,24.60
2022-08-02T21:44:13.626Z,24.70
2022-08-02T21:46:43.074Z,24.40
2022-08-02T21:49:11.147Z,24.70
2022-08-02T21:51:38.891Z,24.60
2022-08-02T21:56:52.196Z,24.80
2022-08-02T21:59:19.125Z,25.00
2022-08-02T22:01:53.867Z,24.60
2022-08-02T22:04:20.671Z,24.60
2022-08-02T22:06:47.142Z,24.70
2022-08-02T22:09:17.436Z,24.60
2022-08-02T22:14:11.372Z,24.60
2022-08-02T22:16:38.167Z,24.30
2022-08-02T22:19:06.647Z,24.70
2022-08-02T22:21:46.708Z,25.30
2022-08-02T22:24:19.717Z,24.60
2022-08-02T22:26:56.808Z,24.90
2022-08-02T22:29:23.265Z,24.40
2022-08-02T22:31:49.696Z,24.70
2022-08-02T22:34:36.764Z,24.60
2022-08-02T22:37:07.572Z,24.60
2022-08-02T22:39:34.194Z,24.60
2022-08-02T22:42:05.245Z,24.70
2022-08-02T22:47:13.771Z,24.50
2022-08-02T22:49:45.299Z,24.60
2022-08-02T22:52:20.931Z,24.70
2022-08-02T22:54:47.677Z,25.10
2022-08-02T22:57:14.124Z,24.70
2022-08-02T22:59:03.126Z,24.70
2022-08-02T22:59:03.801Z,23.80
2022-08-02T22:59:41.109Z,24.60
2022-08-02T23:02:07.946Z,24.50
2022-08-02T23:04:34.408Z,24.80
2022-08-02T23:07:00.866Z,24.60
2022-08-02T23:09:27.314Z,24.90
2022-08-02T23:11:53.763Z,24.80
2022-08-02T23:14:20.222Z,24.50
2022-08-02T23:16:46.700Z,24.70
2022-08-02T23:19:13.137Z,24.90
2022-08-02T23:22:01.747Z,24.90
2022-08-02T23:24:26.043Z,24.80
2022-08-02T23:26:52.493Z,24.60
2022-08-02T23:29:18.969Z,24.60
2022-08-02T23:34:12.433Z,24.70
2022-08-02T23:36:38.890Z,24.90
2022-08-02T23:39:05.333Z,23.70
2022-08-02T23:41:34.455Z,23.60
2022-08-02T23:44:13.653Z,24.50
2022-08-02T23:46:41.187Z,24.80
2022-08-02T23:49:07.692Z,24.60
2022-08-02T23:54:01.195Z,25.10
2022-08-02T23:56:27.637Z,24.80
2022-08-02T23:58:54.107Z,24.40
